KDMN/DMN METAR and TAF weather

Enter ICAO airport designator
Station Type Date Time Source
KDMN METAR 2020/03/28 19:53 UTC NOAA

KDMN 281953Z AUTO 00000KT 10SM CLR 13/M08 A3010 RMK AO2 SLP167 T01331083


Station Type Date Time Source
KDMN Decoded METAR 2020/03/28 19:53 UTC NOAA

DEMING MUNICIPAL AIRPORT, NM, United States (KDMN) 32-16N 107-43W 1311M
Mar 28, 2020 - 03:53 PM EDT / 2020.03.28 1953 UTC
Wind: Calm:0
Visibility: 10 mile(s):0
Sky conditions: clear
Temperature: 55.9 F (13.3 C)
Dew Point: 17.1 F (-8.3 C)
Relative Humidity: 21%
Pressure (altimeter): 30.1 in. Hg (1019 hPa)
ob: KDMN 281953Z AUTO 00000KT 10SM CLR 13/M08 A3010 RMK AO2 SLP167 T01331083
cycle: 20

Station Type Date Time Source
KDMN TAF 2020/03/28 18:24 UTC NOAA

TAF KDMN 281722Z 2818/2918 27010KT P6SM SKC
FM290300 31005KT P6SM SCT250

Example: see airport list